sensor_id;sensor_type;location;lat;lon;timestamp;temperature;humidity
12907;DHT22;6521;50.498;8.474;2022-10-04T00:00:22;7.28;91.16
12907;DHT22;6521;50.498;8.474;2022-10-04T00:03:03;7.24;90.58
12907;DHT22;6521;50.498;8.474;2022-10-04T00:05:37;7.20;90.60
12907;DHT22;6521;50.498;8.474;2022-10-04T00:08:35;7.15;90.81
12907;DHT22;6521;50.498;8.474;2022-10-04T00:11:34;7.17;90.62
12907;DHT22;6521;50.498;8.474;2022-10-04T00:14:13;7.14;90.79
12907;DHT22;6521;50.498;8.474;2022-10-04T00:16:45;7.11;90.96
12907;DHT22;6521;50.498;8.474;2022-10-04T00:24:31;7.18;90.94
12907;DHT22;6521;50.498;8.474;2022-10-04T00:27:25;7.11;91.00
12907;DHT22;6521;50.498;8.474;2022-10-04T00:32:46;7.04;90.64
12907;DHT22;6521;50.498;8.474;2022-10-04T00:40:41;7.00;90.58
12907;DHT22;6521;50.498;8.474;2022-10-04T00:45:57;6.94;90.99
12907;DHT22;6521;50.498;8.474;2022-10-04T00:48:42;6.97;90.99
12907;DHT22;6521;50.498;8.474;2022-10-04T00:51:25;6.96;90.98
12907;DHT22;6521;50.498;8.474;2022-10-04T00:54:08;6.99;91.23
12907;DHT22;6521;50.498;8.474;2022-10-04T00:56:51;6.99;91.29
12907;DHT22;6521;50.498;8.474;2022-10-04T00:59:43;6.97;90.99
12907;DHT22;6521;50.498;8.474;2022-10-04T01:02:18;6.90;90.94
12907;DHT22;6521;50.498;8.474;2022-10-04T01:07:45;6.87;91.00
12907;DHT22;6521;50.498;8.474;2022-10-04T01:10:29;6.84;91.23
12907;DHT22;6521;50.498;8.474;2022-10-04T01:15:54;6.90;91.55
12907;DHT22;6521;50.498;8.474;2022-10-04T01:18:32;6.90;91.39
12907;DHT22;6521;50.498;8.474;2022-10-04T01:23:48;6.97;91.37
12907;DHT22;6521;50.498;8.474;2022-10-04T01:29:14;6.93;91.15
12907;DHT22;6521;50.498;8.474;2022-10-04T01:31:46;6.94;91.30
12907;DHT22;6521;50.498;8.474;2022-10-04T01:34:20;6.92;91.34
12907;DHT22;6521;50.498;8.474;2022-10-04T01:36:54;6.94;91.08
12907;DHT22;6521;50.498;8.474;2022-10-04T01:39:27;6.89;90.93
12907;DHT22;6521;50.498;8.474;2022-10-04T01:42:07;6.79;91.07
12907;DHT22;6521;50.498;8.474;2022-10-04T01:45:03;6.80;91.20
12907;DHT22;6521;50.498;8.474;2022-10-04T01:47:43;6.82;91.33
12907;DHT22;6521;50.498;8.474;2022-10-04T01:50:20;6.84;90.92
12907;DHT22;6521;50.498;8.474;2022-10-04T01:53:07;6.79;90.87
12907;DHT22;6521;50.498;8.474;2022-10-04T01:55:41;6.75;91.23
12907;DHT22;6521;50.498;8.474;2022-10-04T01:58:20;6.73;91.53
12907;DHT22;6521;50.498;8.474;2022-10-04T02:01:22;6.80;91.57
12907;DHT22;6521;50.498;8.474;2022-10-04T02:04:01;6.79;91.30
12907;DHT22;6521;50.498;8.474;2022-10-04T02:06:37;6.77;91.12
12907;DHT22;6521;50.498;8.474;2022-10-04T02:09:11;6.79;91.00
12907;DHT22;6521;50.498;8.474;2022-10-04T02:11:46;6.72;91.10
12907;DHT22;6521;50.498;8.474;2022-10-04T02:14:28;6.71;91.05
12907;DHT22;6521;50.498;8.474;2022-10-04T02:17:05;6.71;91.09
12907;DHT22;6521;50.498;8.474;2022-10-04T02:19:40;6.65;90.91
12907;DHT22;6521;50.498;8.474;2022-10-04T02:22:12;6.61;90.78
12907;DHT22;6521;50.498;8.474;2022-10-04T02:24:44;6.55;91.14
12907;DHT22;6521;50.498;8.474;2022-10-04T02:27:16;6.61;91.61
12907;DHT22;6521;50.498;8.474;2022-10-04T02:29:46;6.62;91.76
12907;DHT22;6521;50.498;8.474;2022-10-04T02:32:17;6.63;91.97
12907;DHT22;6521;50.498;8.474;2022-10-04T02:35:07;6.66;91.34
12907;DHT22;6521;50.498;8.474;2022-10-04T02:37:37;6.65;91.03
12907;DHT22;6521;50.498;8.474;2022-10-04T02:40:12;6.59;91.27
12907;DHT22;6521;50.498;8.474;2022-10-04T02:42:56;6.59;91.74
12907;DHT22;6521;50.498;8.474;2022-10-04T02:45:49;6.63;91.56
12907;DHT22;6521;50.498;8.474;2022-10-04T02:49:18;6.59;92.02
12907;DHT22;6521;50.498;8.474;2022-10-04T02:51:56;6.56;91.74
12907;DHT22;6521;50.498;8.474;2022-10-04T02:54:29;6.56;91.86
12907;DHT22;6521;50.498;8.474;2022-10-04T02:57:01;6.55;91.96
12907;DHT22;6521;50.498;8.474;2022-10-04T02:59:32;6.52;91.80
12907;DHT22;6521;50.498;8.474;2022-10-04T03:02:20;6.53;91.71
12907;DHT22;6521;50.498;8.474;2022-10-04T03:04:53;6.46;91.68
12907;DHT22;6521;50.498;8.474;2022-10-04T03:07:26;6.45;91.77
12907;DHT22;6521;50.498;8.474;2022-10-04T03:09:58;6.46;91.90
12907;DHT22;6521;50.498;8.474;2022-10-04T03:12:29;6.45;91.82
12907;DHT22;6521;50.498;8.474;2022-10-04T03:15:01;6.46;91.58
12907;DHT22;6521;50.498;8.474;2022-10-04T03:17:31;6.46;91.42
12907;DHT22;6521;50.498;8.474;2022-10-04T03:20:04;6.38;91.67
12907;DHT22;6521;50.498;8.474;2022-10-04T03:22:35;6.38;91.96
12907;DHT22;6521;50.498;8.474;2022-10-04T03:25:13;6.36;92.23
12907;DHT22;6521;50.498;8.474;2022-10-04T03:27:46;6.31;92.41
12907;DHT22;6521;50.498;8.474;2022-10-04T03:30:18;6.34;93.01
12907;DHT22;6521;50.498;8.474;2022-10-04T03:32:52;6.39;93.20
12907;DHT22;6521;50.498;8.474;2022-10-04T03:35:33;6.44;92.93
12907;DHT22;6521;50.498;8.474;2022-10-04T03:38:07;6.48;93.13
12907;DHT22;6521;50.498;8.474;2022-10-04T03:40:41;6.49;92.85
12907;DHT22;6521;50.498;8.474;2022-10-04T03:43:14;6.50;92.77
12907;DHT22;6521;50.498;8.474;2022-10-04T03:45:45;6.52;92.69
12907;DHT22;6521;50.498;8.474;2022-10-04T03:48:24;6.50;92.47
12907;DHT22;6521;50.498;8.474;2022-10-04T03:50:57;6.57;92.43
12907;DHT22;6521;50.498;8.474;2022-10-04T03:53:45;6.57;92.71
12907;DHT22;6521;50.498;8.474;2022-10-04T03:56:29;6.59;93.02
12907;DHT22;6521;50.498;8.474;2022-10-04T03:59:03;6.65;92.98
12907;DHT22;6521;50.498;8.474;2022-10-04T04:01:40;6.68;92.81
12907;DHT22;6521;50.498;8.474;2022-10-04T04:04:42;6.69;92.67
12907;DHT22;6521;50.498;8.474;2022-10-04T04:07:29;6.69;92.44
12907;DHT22;6521;50.498;8.474;2022-10-04T04:10:24;6.71;92.55
12907;DHT22;6521;50.498;8.474;2022-10-04T04:15:56;6.79;92.65
12907;DHT22;6521;50.498;8.474;2022-10-04T04:18:33;6.79;92.96
12907;DHT22;6521;50.498;8.474;2022-10-04T04:21:05;6.83;93.09
12907;DHT22;6521;50.498;8.474;2022-10-04T04:23:40;6.84;93.04
12907;DHT22;6521;50.498;8.474;2022-10-04T04:28:48;6.87;92.85
12907;DHT22;6521;50.498;8.474;2022-10-04T04:31:24;6.87;92.82
12907;DHT22;6521;50.498;8.474;2022-10-04T04:34:00;6.87;92.61
12907;DHT22;6521;50.498;8.474;2022-10-04T04:36:38;6.84;92.58
12907;DHT22;6521;50.498;8.474;2022-10-04T04:39:18;6.80;92.44
12907;DHT22;6521;50.498;8.474;2022-10-04T04:42:13;6.75;92.08
12907;DHT22;6521;50.498;8.474;2022-10-04T04:44:50;6.69;91.98
12907;DHT22;6521;50.498;8.474;2022-10-04T04:47:38;6.65;92.32
12907;DHT22;6521;50.498;8.474;2022-10-04T04:50:25;6.56;91.79
12907;DHT22;6521;50.498;8.474;2022-10-04T04:53:16;6.55;92.12
12907;DHT22;6521;50.498;8.474;2022-10-04T04:55:57;6.52;92.32
12907;DHT22;6521;50.498;8.474;2022-10-04T04:58:32;6.56;92.26
12907;DHT22;6521;50.498;8.474;2022-10-04T05:01:24;6.52;92.38
12907;DHT22;6521;50.498;8.474;2022-10-04T05:04:05;6.53;92.16
12907;DHT22;6521;50.498;8.474;2022-10-04T05:07:00;6.53;92.43
12907;DHT22;6521;50.498;8.474;2022-10-04T05:09:36;6.56;92.30
12907;DHT22;6521;50.498;8.474;2022-10-04T05:12:15;6.56;92.29
12907;DHT22;6521;50.498;8.474;2022-10-04T05:14:51;6.57;92.24
12907;DHT22;6521;50.498;8.474;2022-10-04T05:17:25;6.55;92.07
12907;DHT22;6521;50.498;8.474;2022-10-04T05:19:59;6.57;92.28
12907;DHT22;6521;50.498;8.474;2022-10-04T05:22:31;6.50;91.73
12907;DHT22;6521;50.498;8.474;2022-10-04T05:25:08;6.55;92.14
12907;DHT22;6521;50.498;8.474;2022-10-04T05:27:40;6.61;91.83
12907;DHT22;6521;50.498;8.474;2022-10-04T05:38:48;6.52;92.09
12907;DHT22;6521;50.498;8.474;2022-10-04T05:41:35;6.55;92.17
12907;DHT22;6521;50.498;8.474;2022-10-04T05:44:28;6.62;92.33
12907;DHT22;6521;50.498;8.474;2022-10-04T05:47:00;6.65;92.38
12907;DHT22;6521;50.498;8.474;2022-10-04T05:49:42;6.66;92.54
12907;DHT22;6521;50.498;8.474;2022-10-04T05:52:34;6.71;92.42
12907;DHT22;6521;50.498;8.474;2022-10-04T05:58:20;6.80;92.70
12907;DHT22;6521;50.498;8.474;2022-10-04T06:04:13;6.87;92.69
12907;DHT22;6521;50.498;8.474;2022-10-04T06:06:53;6.93;92.53
12907;DHT22;6521;50.498;8.474;2022-10-04T06:09:47;6.87;92.21
12907;DHT22;6521;50.498;8.474;2022-10-04T06:12:36;6.72;92.55
12907;DHT22;6521;50.498;8.474;2022-10-04T06:15:16;6.75;93.02
12907;DHT22;6521;50.498;8.474;2022-10-04T06:18:25;6.72;93.16
12907;DHT22;6521;50.498;8.474;2022-10-04T06:21:17;6.80;93.24
12907;DHT22;6521;50.498;8.474;2022-10-04T06:24:01;6.76;93.14
12907;DHT22;6521;50.498;8.474;2022-10-04T06:26:47;6.80;93.21
12907;DHT22;6521;50.498;8.474;2022-10-04T06:29:25;6.62;93.53
12907;DHT22;6521;50.498;8.474;2022-10-04T06:35:56;6.69;93.73
12907;DHT22;6521;50.498;8.474;2022-10-04T06:40:40;6.75;93.84
12907;DHT22;6521;50.498;8.474;2022-10-04T06:43:33;6.73;94.13
12907;DHT22;6521;50.498;8.474;2022-10-04T06:53:00;6.90;93.45
12907;DHT22;6521;50.498;8.474;2022-10-04T06:58:58;6.92;93.72
12907;DHT22;6521;50.498;8.474;2022-10-04T07:01:35;7.00;93.69
12907;DHT22;6521;50.498;8.474;2022-10-04T07:13:17;7.23;94.13
12907;DHT22;6521;50.498;8.474;2022-10-04T07:15:51;7.34;94.04
12907;DHT22;6521;50.498;8.474;2022-10-04T07:18:39;7.44;93.84
12907;DHT22;6521;50.498;8.474;2022-10-04T07:21:14;7.52;93.64
12907;DHT22;6521;50.498;8.474;2022-10-04T07:23:58;7.65;93.73
12907;DHT22;6521;50.498;8.474;2022-10-04T07:26:51;7.78;93.74
12907;DHT22;6521;50.498;8.474;2022-10-04T07:29:27;7.92;93.49
12907;DHT22;6521;50.498;8.474;2022-10-04T07:32:11;7.99;93.15
12907;DHT22;6521;50.498;8.474;2022-10-04T07:34:44;8.13;93.30
12907;DHT22;6521;50.498;8.474;2022-10-04T07:37:16;8.21;92.96
12907;DHT22;6521;50.498;8.474;2022-10-04T07:39:53;8.17;92.74
12907;DHT22;6521;50.498;8.474;2022-10-04T07:42:34;8.27;92.58
12907;DHT22;6521;50.498;8.474;2022-10-04T07:45:18;8.44;92.62
12907;DHT22;6521;50.498;8.474;2022-10-04T07:48:01;8.54;92.26
12907;DHT22;6521;50.498;8.474;2022-10-04T07:53:37;8.73;92.16
12907;DHT22;6521;50.498;8.474;2022-10-04T07:56:16;8.79;91.79
12907;DHT22;6521;50.498;8.474;2022-10-04T08:02:17;8.81;91.28
12907;DHT22;6521;50.498;8.474;2022-10-04T08:13:19;9.44;91.52
12907;DHT22;6521;50.498;8.474;2022-10-04T08:15:52;9.62;91.52
12907;DHT22;6521;50.498;8.474;2022-10-04T08:18:34;9.68;91.23
12907;DHT22;6521;50.498;8.474;2022-10-04T08:21:09;9.80;90.97
12907;DHT22;6521;50.498;8.474;2022-10-04T08:24:01;9.88;90.75
12907;DHT22;6521;50.498;8.474;2022-10-04T08:35:28;9.97;90.73
12907;DHT22;6521;50.498;8.474;2022-10-04T08:49:42;10.09;91.01
12907;DHT22;6521;50.498;8.474;2022-10-04T09:06:37;10.49;90.59
12907;DHT22;6521;50.498;8.474;2022-10-04T09:15:00;10.87;89.31
12907;DHT22;6521;50.498;8.474;2022-10-04T09:23:10;11.31;87.65
12907;DHT22;6521;50.498;8.474;2022-10-04T09:40:18;12.88;84.52
12907;DHT22;6521;50.498;8.474;2022-10-04T09:46:29;13.24;81.92
12907;DHT22;6521;50.498;8.474;2022-10-04T09:49:21;13.53;82.47
12907;DHT22;6521;50.498;8.474;2022-10-04T10:16:04;15.12;77.54
12907;DHT22;6521;50.498;8.474;2022-10-04T10:27:39;16.99;71.42
12907;DHT22;6521;50.498;8.474;2022-10-04T10:36:05;17.54;66.96
12907;DHT22;6521;50.498;8.474;2022-10-04T10:41:29;17.68;68.53
12907;DHT22;6521;50.498;8.474;2022-10-04T11:07:55;18.87;61.96
12907;DHT22;6521;50.498;8.474;2022-10-04T11:31:37;20.39;57.82
12907;DHT22;6521;50.498;8.474;2022-10-04T11:37:11;20.56;58.50
12907;DHT22;6521;50.498;8.474;2022-10-04T11:42:50;20.69;55.83
12907;DHT22;6521;50.498;8.474;2022-10-04T11:45:36;20.62;56.10
12907;DHT22;6521;50.498;8.474;2022-10-04T12:00:10;20.64;56.27
12907;DHT22;6521;50.498;8.474;2022-10-04T12:03:07;20.62;57.90
12907;DHT22;6521;50.498;8.474;2022-10-04T12:06:06;20.55;57.87
12907;DHT22;6521;50.498;8.474;2022-10-04T12:32:17;20.45;57.62
12907;DHT22;6521;50.498;8.474;2022-10-04T12:52:15;20.22;58.57
12907;DHT22;6521;50.498;8.474;2022-10-04T12:55:22;20.41;57.79
12907;DHT22;6521;50.498;8.474;2022-10-04T12:57:59;20.39;58.67
12907;DHT22;6521;50.498;8.474;2022-10-04T13:00:35;20.45;58.82
12907;DHT22;6521;50.498;8.474;2022-10-04T13:09:41;20.29;57.64
12907;DHT22;6521;50.498;8.474;2022-10-04T13:12:28;20.42;57.35
12907;DHT22;6521;50.498;8.474;2022-10-04T13:23:07;20.51;58.23
12907;DHT22;6521;50.498;8.474;2022-10-04T13:31:51;20.66;56.14
12907;DHT22;6521;50.498;8.474;2022-10-04T13:34:40;20.62;55.58
12907;DHT22;6521;50.498;8.474;2022-10-04T13:40:49;20.61;55.64
12907;DHT22;6521;50.498;8.474;2022-10-04T13:43:49;20.68;56.45
12907;DHT22;6521;50.498;8.474;2022-10-04T13:49:55;20.99;54.96
12907;DHT22;6521;50.498;8.474;2022-10-04T13:55:15;20.93;53.08
12907;DHT22;6521;50.498;8.474;2022-10-04T14:13:34;20.99;53.86
12907;DHT22;6521;50.498;8.474;2022-10-04T14:34:03;20.58;42.54
12907;DHT22;6521;50.498;8.474;2022-10-04T14:37:10;20.51;40.25
12907;DHT22;6521;50.498;8.474;2022-10-04T14:40:03;20.45;39.93
12907;DHT22;6521;50.498;8.474;2022-10-04T14:43:01;20.31;43.06
12907;DHT22;6521;50.498;8.474;2022-10-04T14:51:59;19.53;49.99
12907;DHT22;6521;50.498;8.474;2022-10-04T15:00:15;19.11;51.61
12907;DHT22;6521;50.498;8.474;2022-10-04T15:02:56;19.01;51.63
12907;DHT22;6521;50.498;8.474;2022-10-04T15:05:44;18.88;51.96
12907;DHT22;6521;50.498;8.474;2022-10-04T15:17:34;18.32;51.94
12907;DHT22;6521;50.498;8.474;2022-10-04T15:20:20;18.25;53.97
12907;DHT22;6521;50.498;8.474;2022-10-04T15:23:06;18.12;55.23
12907;DHT22;6521;50.498;8.474;2022-10-04T15:25:46;17.91;55.38
12907;DHT22;6521;50.498;8.474;2022-10-04T15:40:14;17.51;58.36
12907;DHT22;6521;50.498;8.474;2022-10-04T15:43:02;17.50;58.43
12907;DHT22;6521;50.498;8.474;2022-10-04T15:45:52;17.40;59.38
12907;DHT22;6521;50.498;8.474;2022-10-04T16:05:56;16.69;61.67
12907;DHT22;6521;50.498;8.474;2022-10-04T16:14:46;16.14;60.93
12907;DHT22;6521;50.498;8.474;2022-10-04T16:23:29;15.80;63.16
12907;DHT22;6521;50.498;8.474;2022-10-04T16:29:04;15.50;64.18
12907;DHT22;6521;50.498;8.474;2022-10-04T16:34:35;15.17;66.39
12907;DHT22;6521;50.498;8.474;2022-10-04T16:42:58;15.01;66.19
12907;DHT22;6521;50.498;8.474;2022-10-04T16:46:29;14.92;65.20
12907;DHT22;6521;50.498;8.474;2022-10-04T16:48:53;14.92;65.34
12907;DHT22;6521;50.498;8.474;2022-10-04T17:13:54;14.20;66.07
12907;DHT22;6521;50.498;8.474;2022-10-04T17:16:38;14.12;66.67
12907;DHT22;6521;50.498;8.474;2022-10-04T17:22:26;13.98;66.58
12907;DHT22;6521;50.498;8.474;2022-10-04T17:28:12;13.81;67.96
12907;DHT22;6521;50.498;8.474;2022-10-04T17:33:37;13.54;70.09
12907;DHT22;6521;50.498;8.474;2022-10-04T17:36:27;13.41;70.13
12907;DHT22;6521;50.498;8.474;2022-10-04T17:42:02;13.23;70.70
12907;DHT22;6521;50.498;8.474;2022-10-04T17:44:50;13.14;69.23
12907;DHT22;6521;50.498;8.474;2022-10-04T17:47:37;13.10;69.67
12907;DHT22;6521;50.498;8.474;2022-10-04T17:50:32;13.07;70.30
12907;DHT22;6521;50.498;8.474;2022-10-04T17:53:27;12.97;71.39
12907;DHT22;6521;50.498;8.474;2022-10-04T17:56:35;12.89;71.31
12907;DHT22;6521;50.498;8.474;2022-10-04T17:59:12;12.78;72.56
12907;DHT22;6521;50.498;8.474;2022-10-04T18:01:50;12.72;72.79
12907;DHT22;6521;50.498;8.474;2022-10-04T18:04:28;12.59;73.06
12907;DHT22;6521;50.498;8.474;2022-10-04T18:15:02;12.33;74.60
12907;DHT22;6521;50.498;8.474;2022-10-04T18:17:43;12.23;74.91
12907;DHT22;6521;50.498;8.474;2022-10-04T18:20:22;12.10;75.82
12907;DHT22;6521;50.498;8.474;2022-10-04T18:23:00;12.06;75.85
12907;DHT22;6521;50.498;8.474;2022-10-04T18:25:32;12.00;76.25
12907;DHT22;6521;50.498;8.474;2022-10-04T18:33:23;11.82;77.07
12907;DHT22;6521;50.498;8.474;2022-10-04T18:36:15;11.76;77.81
12907;DHT22;6521;50.498;8.474;2022-10-04T18:39:16;11.72;77.99
12907;DHT22;6521;50.498;8.474;2022-10-04T18:41:59;11.66;78.55
12907;DHT22;6521;50.498;8.474;2022-10-04T18:44:46;11.63;78.17
12907;DHT22;6521;50.498;8.474;2022-10-04T18:47:37;11.59;78.30
12907;DHT22;6521;50.498;8.474;2022-10-04T18:50:30;11.55;78.58
12907;DHT22;6521;50.498;8.474;2022-10-04T18:53:18;11.42;78.74
12907;DHT22;6521;50.498;8.474;2022-10-04T19:04:44;11.28;79.80
12907;DHT22;6521;50.498;8.474;2022-10-04T19:07:24;11.25;79.85
12907;DHT22;6521;50.498;8.474;2022-10-04T19:10:10;11.19;79.98
12907;DHT22;6521;50.498;8.474;2022-10-04T19:15:51;11.12;80.73
12907;DHT22;6521;50.498;8.474;2022-10-04T19:27:47;11.00;81.59
12907;DHT22;6521;50.498;8.474;2022-10-04T19:30:20;10.96;81.46
12907;DHT22;6521;50.498;8.474;2022-10-04T19:33:16;10.91;81.92
12907;DHT22;6521;50.498;8.474;2022-10-04T19:41:28;10.90;81.87
12907;DHT22;6521;50.498;8.474;2022-10-04T19:44:34;10.91;81.85
12907;DHT22;6521;50.498;8.474;2022-10-04T19:47:19;10.85;81.98
12907;DHT22;6521;50.498;8.474;2022-10-04T19:50:16;10.90;82.03
12907;DHT22;6521;50.498;8.474;2022-10-04T19:55:38;10.83;82.27
12907;DHT22;6521;50.498;8.474;2022-10-04T19:58:32;10.81;82.29
12907;DHT22;6521;50.498;8.474;2022-10-04T20:01:14;10.74;82.83
12907;DHT22;6521;50.498;8.474;2022-10-04T20:03:46;10.71;82.93
12907;DHT22;6521;50.498;8.474;2022-10-04T20:06:46;10.68;83.02
12907;DHT22;6521;50.498;8.474;2022-10-04T20:12:30;10.57;83.05
12907;DHT22;6521;50.498;8.474;2022-10-04T20:15:40;10.47;83.72
12907;DHT22;6521;50.498;8.474;2022-10-04T20:21:04;10.38;83.60
12907;DHT22;6521;50.498;8.474;2022-10-04T20:26:10;10.35;83.28
12907;DHT22;6521;50.498;8.474;2022-10-04T20:32:51;10.20;83.64
12907;DHT22;6521;50.498;8.474;2022-10-04T20:35:11;10.12;83.64
12907;DHT22;6521;50.498;8.474;2022-10-04T20:45:46;9.94;84.80
12907;DHT22;6521;50.498;8.474;2022-10-04T20:48:22;9.95;84.70
12907;DHT22;6521;50.498;8.474;2022-10-04T20:50:54;9.92;84.79
12907;DHT22;6521;50.498;8.474;2022-10-04T20:53:29;9.84;85.20
12907;DHT22;6521;50.498;8.474;2022-10-04T20:56:30;9.81;85.40
12907;DHT22;6521;50.498;8.474;2022-10-04T20:59:02;9.85;85.42
12907;DHT22;6521;50.498;8.474;2022-10-04T21:01:34;9.82;85.58
12907;DHT22;6521;50.498;8.474;2022-10-04T21:04:24;9.84;85.45
12907;DHT22;6521;50.498;8.474;2022-10-04T21:07:18;9.80;85.31
12907;DHT22;6521;50.498;8.474;2022-10-04T21:09:50;9.77;84.98
12907;DHT22;6521;50.498;8.474;2022-10-04T21:15:21;9.74;84.90
12907;DHT22;6521;50.498;8.474;2022-10-04T21:18:01;9.70;85.03
12907;DHT22;6521;50.498;8.474;2022-10-04T21:20:46;9.67;85.45
12907;DHT22;6521;50.498;8.474;2022-10-04T21:23:34;9.67;85.55
12907;DHT22;6521;50.498;8.474;2022-10-04T21:26:22;9.67;85.83
12907;DHT22;6521;50.498;8.474;2022-10-04T21:28:54;9.64;85.66
12907;DHT22;6521;50.498;8.474;2022-10-04T21:31:26;9.68;86.10
12907;DHT22;6521;50.498;8.474;2022-10-04T21:33:57;9.68;86.16
12907;DHT22;6521;50.498;8.474;2022-10-04T21:36:28;9.67;86.31
12907;DHT22;6521;50.498;8.474;2022-10-04T21:38:58;9.71;86.04
12907;DHT22;6521;50.498;8.474;2022-10-04T21:41:29;9.71;85.91
12907;DHT22;6521;50.498;8.474;2022-10-04T21:43:59;9.67;85.72
12907;DHT22;6521;50.498;8.474;2022-10-04T21:46:30;9.64;85.76
12907;DHT22;6521;50.498;8.474;2022-10-04T21:49:02;9.61;85.74
12907;DHT22;6521;50.498;8.474;2022-10-04T21:51:32;9.55;85.93
12907;DHT22;6521;50.498;8.474;2022-10-04T21:54:06;9.52;85.99
12907;DHT22;6521;50.498;8.474;2022-10-04T21:56:37;9.51;85.96
12907;DHT22;6521;50.498;8.474;2022-10-04T21:59:07;9.47;86.03
12907;DHT22;6521;50.498;8.474;2022-10-04T22:01:38;9.47;86.10
12907;DHT22;6521;50.498;8.474;2022-10-04T22:04:08;9.47;86.23
12907;DHT22;6521;50.498;8.474;2022-10-04T22:06:39;9.43;86.51
12907;DHT22;6521;50.498;8.474;2022-10-04T22:09:10;9.36;86.76
12907;DHT22;6521;50.498;8.474;2022-10-04T22:11:41;9.37;86.89
12907;DHT22;6521;50.498;8.474;2022-10-04T22:14:11;9.30;86.98
12907;DHT22;6521;50.498;8.474;2022-10-04T22:16:42;9.31;86.98
12907;DHT22;6521;50.498;8.474;2022-10-04T22:19:13;9.36;86.49
12907;DHT22;6521;50.498;8.474;2022-10-04T22:21:43;9.29;86.75
12907;DHT22;6521;50.498;8.474;2022-10-04T22:24:17;9.18;86.93
12907;DHT22;6521;50.498;8.474;2022-10-04T22:26:48;9.18;86.86
12907;DHT22;6521;50.498;8.474;2022-10-04T22:29:18;9.15;86.94
12907;DHT22;6521;50.498;8.474;2022-10-04T22:31:50;9.16;86.72
12907;DHT22;6521;50.498;8.474;2022-10-04T22:34:21;9.08;86.96
12907;DHT22;6521;50.498;8.474;2022-10-04T22:36:52;8.96;87.19
12907;DHT22;6521;50.498;8.474;2022-10-04T22:39:23;8.95;87.20
12907;DHT22;6521;50.498;8.474;2022-10-04T22:41:56;8.83;87.38
12907;DHT22;6521;50.498;8.474;2022-10-04T22:44:35;8.82;87.69
12907;DHT22;6521;50.498;8.474;2022-10-04T22:47:10;8.83;87.89
12907;DHT22;6521;50.498;8.474;2022-10-04T22:49:43;8.88;87.98
12907;DHT22;6521;50.498;8.474;2022-10-04T22:52:21;8.85;88.32
12907;DHT22;6521;50.498;8.474;2022-10-04T22:54:55;8.89;87.94
12907;DHT22;6521;50.498;8.474;2022-10-04T22:57:28;8.85;87.85
12907;DHT22;6521;50.498;8.474;2022-10-04T23:00:00;8.81;87.76
12907;DHT22;6521;50.498;8.474;2022-10-04T23:02:30;8.79;88.02
12907;DHT22;6521;50.498;8.474;2022-10-04T23:05:13;8.82;87.98
12907;DHT22;6521;50.498;8.474;2022-10-04T23:07:45;8.79;87.67
12907;DHT22;6521;50.498;8.474;2022-10-04T23:10:17;8.75;87.67
12907;DHT22;6521;50.498;8.474;2022-10-04T23:12:48;8.68;87.93
12907;DHT22;6521;50.498;8.474;2022-10-04T23:15:20;8.65;87.93
12907;DHT22;6521;50.498;8.474;2022-10-04T23:17:54;8.64;87.80
12907;DHT22;6521;50.498;8.474;2022-10-04T23:20:27;8.61;88.02
12907;DHT22;6521;50.498;8.474;2022-10-04T23:22:58;8.57;87.89
12907;DHT22;6521;50.498;8.474;2022-10-04T23:25:29;8.51;88.17
12907;DHT22;6521;50.498;8.474;2022-10-04T23:28:11;8.48;88.16
12907;DHT22;6521;50.498;8.474;2022-10-04T23:30:44;8.52;87.97
12907;DHT22;6521;50.498;8.474;2022-10-04T23:33:17;8.48;87.94
12907;DHT22;6521;50.498;8.474;2022-10-04T23:35:49;8.47;88.00
12907;DHT22;6521;50.498;8.474;2022-10-04T23:38:22;8.41;87.68
12907;DHT22;6521;50.498;8.474;2022-10-04T23:40:54;8.37;87.93
12907;DHT22;6521;50.498;8.474;2022-10-04T23:43:24;8.31;88.22
12907;DHT22;6521;50.498;8.474;2022-10-04T23:45:56;8.30;88.87
12907;DHT22;6521;50.498;8.474;2022-10-04T23:48:28;8.30;89.90
12907;DHT22;6521;50.498;8.474;2022-10-04T23:51:01;8.29;89.40
12907;DHT22;6521;50.498;8.474;2022-10-04T23:53:32;8.33;89.29
12907;DHT22;6521;50.498;8.474;2022-10-04T23:56:05;8.36;89.12
12907;DHT22;6521;50.498;8.474;2022-10-04T23:58:39;8.36;89.01
